sensor_id;sensor_type;location;lat;lon;timestamp;temperature;humidity
51175;DHT22;37240;50.104;20.010;2024-03-02T00:00:01;11.00;99.90
51175;DHT22;37240;50.104;20.010;2024-03-02T00:05:02;10.90;99.90
51175;DHT22;37240;50.104;20.010;2024-03-02T00:10:09;10.70;99.90
51175;DHT22;37240;50.104;20.010;2024-03-02T00:15:41;10.60;99.90
51175;DHT22;37240;50.104;20.010;2024-03-02T00:20:42;10.70;99.90
51175;DHT22;37240;50.104;20.010;2024-03-02T00:25:45;10.80;99.90
51175;DHT22;37240;50.104;20.010;2024-03-02T00:30:58;10.90;99.90
51175;DHT22;37240;50.104;20.010;2024-03-02T00:35:59;10.80;99.90
51175;DHT22;37240;50.104;20.010;2024-03-02T00:41:05;10.80;99.90
51175;DHT22;37240;50.104;20.010;2024-03-02T00:46:06;10.80;99.90
51175;DHT22;37240;50.104;20.010;2024-03-02T00:51:08;10.70;99.90
51175;DHT22;37240;50.104;20.010;2024-03-02T00:56:12;10.60;99.90
51175;DHT22;37240;50.104;20.010;2024-03-02T01:01:12;10.60;99.90
51175;DHT22;37240;50.104;20.010;2024-03-02T01:06:13;10.50;99.90
51175;DHT22;37240;50.104;20.010;2024-03-02T01:11:15;10.40;99.90
51175;DHT22;37240;50.104;20.010;2024-03-02T01:16:15;10.40;99.90
51175;DHT22;37240;50.104;20.010;2024-03-02T01:21:16;10.40;99.90
51175;DHT22;37240;50.104;20.010;2024-03-02T01:26:17;10.30;99.90
51175;DHT22;37240;50.104;20.010;2024-03-02T01:31:17;10.30;99.90
51175;DHT22;37240;50.104;20.010;2024-03-02T01:36:18;10.30;99.90
51175;DHT22;37240;50.104;20.010;2024-03-02T01:41:18;10.30;99.90
51175;DHT22;37240;50.104;20.010;2024-03-02T01:46:19;10.20;99.90
51175;DHT22;37240;50.104;20.010;2024-03-02T01:51:19;10.10;99.90
51175;DHT22;37240;50.104;20.010;2024-03-02T01:56:20;10.10;99.90
51175;DHT22;37240;50.104;20.010;2024-03-02T02:01:21;9.90;99.90
51175;DHT22;37240;50.104;20.010;2024-03-02T02:06:21;9.90;99.90
51175;DHT22;37240;50.104;20.010;2024-03-02T02:11:22;9.90;99.90
51175;DHT22;37240;50.104;20.010;2024-03-02T02:16:22;9.90;99.90
51175;DHT22;37240;50.104;20.010;2024-03-02T02:21:23;9.90;99.90
51175;DHT22;37240;50.104;20.010;2024-03-02T02:26:23;9.90;99.90
51175;DHT22;37240;50.104;20.010;2024-03-02T02:31:24;10.00;99.90
51175;DHT22;37240;50.104;20.010;2024-03-02T02:36:25;10.00;99.90
51175;DHT22;37240;50.104;20.010;2024-03-02T02:41:25;9.90;99.90
51175;DHT22;37240;50.104;20.010;2024-03-02T02:46:26;9.90;99.90
51175;DHT22;37240;50.104;20.010;2024-03-02T02:51:26;9.80;99.90
51175;DHT22;37240;50.104;20.010;2024-03-02T02:56:27;9.80;99.90
51175;DHT22;37240;50.104;20.010;2024-03-02T03:01:27;9.70;99.90
51175;DHT22;37240;50.104;20.010;2024-03-02T03:06:28;9.70;99.90
51175;DHT22;37240;50.104;20.010;2024-03-02T03:11:28;9.70;99.90
51175;DHT22;37240;50.104;20.010;2024-03-02T03:16:29;9.70;99.90
51175;DHT22;37240;50.104;20.010;2024-03-02T03:21:29;9.70;99.90
51175;DHT22;37240;50.104;20.010;2024-03-02T03:26:30;9.70;99.90
51175;DHT22;37240;50.104;20.010;2024-03-02T03:31:31;9.50;99.90
51175;DHT22;37240;50.104;20.010;2024-03-02T03:36:31;9.70;99.90
51175;DHT22;37240;50.104;20.010;2024-03-02T03:41:32;9.60;99.90
51175;DHT22;37240;50.104;20.010;2024-03-02T03:46:32;9.60;99.90
51175;DHT22;37240;50.104;20.010;2024-03-02T03:51:33;9.60;99.90
51175;DHT22;37240;50.104;20.010;2024-03-02T03:56:33;9.50;99.90
51175;DHT22;37240;50.104;20.010;2024-03-02T04:01:34;9.40;99.90
51175;DHT22;37240;50.104;20.010;2024-03-02T04:06:34;9.40;99.90
51175;DHT22;37240;50.104;20.010;2024-03-02T04:11:35;9.40;99.90
51175;DHT22;37240;50.104;20.010;2024-03-02T04:16:36;9.30;99.90
51175;DHT22;37240;50.104;20.010;2024-03-02T04:21:36;9.30;99.90
51175;DHT22;37240;50.104;20.010;2024-03-02T04:26:37;9.20;99.90
51175;DHT22;37240;50.104;20.010;2024-03-02T04:31:37;9.20;99.90
51175;DHT22;37240;50.104;20.010;2024-03-02T04:36:38;9.20;99.90
51175;DHT22;37240;50.104;20.010;2024-03-02T04:41:38;9.20;99.90
51175;DHT22;37240;50.104;20.010;2024-03-02T04:46:39;9.30;99.90
51175;DHT22;37240;50.104;20.010;2024-03-02T04:51:39;9.30;99.90
51175;DHT22;37240;50.104;20.010;2024-03-02T04:56:40;9.30;99.90
51175;DHT22;37240;50.104;20.010;2024-03-02T05:01:43;9.40;99.90
51175;DHT22;37240;50.104;20.010;2024-03-02T05:06:44;9.40;99.90
51175;DHT22;37240;50.104;20.010;2024-03-02T05:11:45;9.40;99.90
51175;DHT22;37240;50.104;20.010;2024-03-02T05:16:45;9.40;99.90
51175;DHT22;37240;50.104;20.010;2024-03-02T05:21:46;9.50;99.90
51175;DHT22;37240;50.104;20.010;2024-03-02T05:26:46;9.50;99.90
51175;DHT22;37240;50.104;20.010;2024-03-02T05:31:49;9.60;99.90
51175;DHT22;37240;50.104;20.010;2024-03-02T05:36:50;9.70;99.90
51175;DHT22;37240;50.104;20.010;2024-03-02T05:41:50;9.80;99.90
51175;DHT22;37240;50.104;20.010;2024-03-02T05:46:51;9.80;99.90
51175;DHT22;37240;50.104;20.010;2024-03-02T05:51:51;9.80;99.90
51175;DHT22;37240;50.104;20.010;2024-03-02T05:56:52;9.80;99.90
51175;DHT22;37240;50.104;20.010;2024-03-02T06:01:52;9.90;99.90
51175;DHT22;37240;50.104;20.010;2024-03-02T06:06:53;9.90;99.90
51175;DHT22;37240;50.104;20.010;2024-03-02T06:11:54;9.90;99.90
51175;DHT22;37240;50.104;20.010;2024-03-02T06:16:54;9.80;99.90
51175;DHT22;37240;50.104;20.010;2024-03-02T06:21:55;9.70;99.90
51175;DHT22;37240;50.104;20.010;2024-03-02T06:26:55;9.70;99.90
51175;DHT22;37240;50.104;20.010;2024-03-02T06:31:56;9.90;99.90
51175;DHT22;37240;50.104;20.010;2024-03-02T06:36:56;9.80;99.90
51175;DHT22;37240;50.104;20.010;2024-03-02T06:41:57;9.90;99.90
51175;DHT22;37240;50.104;20.010;2024-03-02T06:47:01;10.10;99.90
51175;DHT22;37240;50.104;20.010;2024-03-02T06:52:01;10.20;99.90
51175;DHT22;37240;50.104;20.010;2024-03-02T06:57:02;10.00;99.90
51175;DHT22;37240;50.104;20.010;2024-03-02T07:02:03;10.10;99.90
51175;DHT22;37240;50.104;20.010;2024-03-02T07:07:03;10.20;99.90
51175;DHT22;37240;50.104;20.010;2024-03-02T07:12:05;10.20;99.90
51175;DHT22;37240;50.104;20.010;2024-03-02T07:17:06;10.30;99.90
51175;DHT22;37240;50.104;20.010;2024-03-02T07:22:07;10.40;99.90
51175;DHT22;37240;50.104;20.010;2024-03-02T07:27:11;10.50;99.90
51175;DHT22;37240;50.104;20.010;2024-03-02T07:32:12;10.60;99.90
51175;DHT22;37240;50.104;20.010;2024-03-02T07:37:13;10.70;99.90
51175;DHT22;37240;50.104;20.010;2024-03-02T07:42:13;10.80;99.90
51175;DHT22;37240;50.104;20.010;2024-03-02T07:47:14;11.00;99.90
51175;DHT22;37240;50.104;20.010;2024-03-02T07:52:15;11.00;99.90
51175;DHT22;37240;50.104;20.010;2024-03-02T07:57:15;11.20;99.90
51175;DHT22;37240;50.104;20.010;2024-03-02T08:02:16;11.20;99.90
51175;DHT22;37240;50.104;20.010;2024-03-02T08:07:16;11.30;99.90
51175;DHT22;37240;50.104;20.010;2024-03-02T08:12:17;11.30;99.90
51175;DHT22;37240;50.104;20.010;2024-03-02T08:17:17;11.40;99.90
51175;DHT22;37240;50.104;20.010;2024-03-02T08:22:18;11.40;99.90
51175;DHT22;37240;50.104;20.010;2024-03-02T08:27:22;11.50;99.90
51175;DHT22;37240;50.104;20.010;2024-03-02T08:32:26;11.40;99.90
51175;DHT22;37240;50.104;20.010;2024-03-02T08:37:26;11.40;99.90
51175;DHT22;37240;50.104;20.010;2024-03-02T08:42:27;11.40;99.90
51175;DHT22;37240;50.104;20.010;2024-03-02T08:47:31;11.50;99.90
51175;DHT22;37240;50.104;20.010;2024-03-02T08:52:31;11.40;99.90
51175;DHT22;37240;50.104;20.010;2024-03-02T08:57:32;11.50;99.90
51175;DHT22;37240;50.104;20.010;2024-03-02T09:02:36;11.50;99.90
51175;DHT22;37240;50.104;20.010;2024-03-02T09:07:37;11.50;99.90
51175;DHT22;37240;50.104;20.010;2024-03-02T09:12:42;11.60;99.90
51175;DHT22;37240;50.104;20.010;2024-03-02T09:17:43;11.60;99.90
51175;DHT22;37240;50.104;20.010;2024-03-02T09:22:44;11.70;99.90
51175;DHT22;37240;50.104;20.010;2024-03-02T09:27:44;11.80;99.90
51175;DHT22;37240;50.104;20.010;2024-03-02T09:32:51;11.90;99.90
51175;DHT22;37240;50.104;20.010;2024-03-02T09:37:51;11.80;99.90
51175;DHT22;37240;50.104;20.010;2024-03-02T09:42:53;11.90;99.90
51175;DHT22;37240;50.104;20.010;2024-03-02T09:47:55;11.80;99.90
51175;DHT22;37240;50.104;20.010;2024-03-02T09:52:55;11.90;99.90
51175;DHT22;37240;50.104;20.010;2024-03-02T09:57:56;11.90;99.90
51175;DHT22;37240;50.104;20.010;2024-03-02T10:02:56;12.00;99.90
51175;DHT22;37240;50.104;20.010;2024-03-02T10:08:02;12.10;99.90
51175;DHT22;37240;50.104;20.010;2024-03-02T10:13:06;12.30;99.90
51175;DHT22;37240;50.104;20.010;2024-03-02T10:18:12;12.40;99.90
51175;DHT22;37240;50.104;20.010;2024-03-02T10:23:16;12.50;99.90
51175;DHT22;37240;50.104;20.010;2024-03-02T10:28:16;12.60;99.90
51175;DHT22;37240;50.104;20.010;2024-03-02T10:33:17;12.70;99.90
51175;DHT22;37240;50.104;20.010;2024-03-02T10:38:18;12.80;99.90
51175;DHT22;37240;50.104;20.010;2024-03-02T10:43:19;12.90;99.90
51175;DHT22;37240;50.104;20.010;2024-03-02T10:48:20;13.00;99.90
51175;DHT22;37240;50.104;20.010;2024-03-02T10:53:21;13.10;99.90
51175;DHT22;37240;50.104;20.010;2024-03-02T10:58:22;13.30;99.90
51175;DHT22;37240;50.104;20.010;2024-03-02T11:03:23;13.50;99.90
51175;DHT22;37240;50.104;20.010;2024-03-02T11:08:24;13.60;99.90
51175;DHT22;37240;50.104;20.010;2024-03-02T11:13:33;13.80;99.90
51175;DHT22;37240;50.104;20.010;2024-03-02T11:18:34;14.00;99.90
51175;DHT22;37240;50.104;20.010;2024-03-02T11:23:35;14.00;99.90
51175;DHT22;37240;50.104;20.010;2024-03-02T11:28:35;14.10;99.90
51175;DHT22;37240;50.104;20.010;2024-03-02T11:33:36;14.10;99.90
51175;DHT22;37240;50.104;20.010;2024-03-02T11:38:37;14.10;99.90
51175;DHT22;37240;50.104;20.010;2024-03-02T11:43:38;14.10;99.90
51175;DHT22;37240;50.104;20.010;2024-03-02T11:48:47;14.00;99.90
51175;DHT22;37240;50.104;20.010;2024-03-02T11:53:51;14.10;99.90
51175;DHT22;37240;50.104;20.010;2024-03-02T11:58:55;14.10;99.90
51175;DHT22;37240;50.104;20.010;2024-03-02T12:03:56;14.30;99.50
51175;DHT22;37240;50.104;20.010;2024-03-02T12:08:58;14.40;99.30
51175;DHT22;37240;50.104;20.010;2024-03-02T12:14:01;14.40;99.30
51175;DHT22;37240;50.104;20.010;2024-03-02T12:19:02;14.50;98.90
51175;DHT22;37240;50.104;20.010;2024-03-02T12:24:03;14.50;98.70
51175;DHT22;37240;50.104;20.010;2024-03-02T12:29:03;14.70;98.50
51175;DHT22;37240;50.104;20.010;2024-03-02T12:34:04;14.70;98.50
51175;DHT22;37240;50.104;20.010;2024-03-02T12:39:05;14.70;98.60
51175;DHT22;37240;50.104;20.010;2024-03-02T12:44:06;14.80;98.20
51175;DHT22;37240;50.104;20.010;2024-03-02T12:49:12;14.80;98.50
51175;DHT22;37240;50.104;20.010;2024-03-02T12:54:12;14.90;98.50
51175;DHT22;37240;50.104;20.010;2024-03-02T12:59:23;15.00;98.50
51175;DHT22;37240;50.104;20.010;2024-03-02T13:04:28;15.20;98.40
51175;DHT22;37240;50.104;20.010;2024-03-02T13:09:29;15.20;98.00
51175;DHT22;37240;50.104;20.010;2024-03-02T13:14:35;15.40;98.10
51175;DHT22;37240;50.104;20.010;2024-03-02T13:19:35;15.40;97.70
51175;DHT22;37240;50.104;20.010;2024-03-02T13:24:39;15.40;97.60
51175;DHT22;37240;50.104;20.010;2024-03-02T13:29:39;15.60;97.70
51175;DHT22;37240;50.104;20.010;2024-03-02T13:34:40;15.60;97.10
51175;DHT22;37240;50.104;20.010;2024-03-02T13:39:41;15.60;97.00
51175;DHT22;37240;50.104;20.010;2024-03-02T13:44:44;15.60;97.10
51175;DHT22;37240;50.104;20.010;2024-03-02T13:49:45;15.60;97.30
51175;DHT22;37240;50.104;20.010;2024-03-02T13:54:47;15.60;97.00
51175;DHT22;37240;50.104;20.010;2024-03-02T13:59:48;15.70;97.00
51175;DHT22;37240;50.104;20.010;2024-03-02T14:04:49;15.70;97.10
51175;DHT22;37240;50.104;20.010;2024-03-02T14:09:49;15.70;97.20
51175;DHT22;37240;50.104;20.010;2024-03-02T14:14:50;15.70;97.30
51175;DHT22;37240;50.104;20.010;2024-03-02T14:19:50;15.80;96.80
51175;DHT22;37240;50.104;20.010;2024-03-02T14:24:51;15.80;96.90
51175;DHT22;37240;50.104;20.010;2024-03-02T14:29:51;15.70;96.90
51175;DHT22;37240;50.104;20.010;2024-03-02T14:34:52;15.70;96.70
51175;DHT22;37240;50.104;20.010;2024-03-02T14:39:52;15.70;96.80
51175;DHT22;37240;50.104;20.010;2024-03-02T14:44:53;15.70;97.00
51175;DHT22;37240;50.104;20.010;2024-03-02T14:49:53;15.60;97.10
51175;DHT22;37240;50.104;20.010;2024-03-02T14:54:54;15.60;97.30
51175;DHT22;37240;50.104;20.010;2024-03-02T14:59:55;15.50;97.50
51175;DHT22;37240;50.104;20.010;2024-03-02T15:04:55;15.40;97.40
51175;DHT22;37240;50.104;20.010;2024-03-02T15:09:56;15.40;97.50
51175;DHT22;37240;50.104;20.010;2024-03-02T15:14:56;15.40;97.80
51175;DHT22;37240;50.104;20.010;2024-03-02T15:19:57;15.40;97.90
51175;DHT22;37240;50.104;20.010;2024-03-02T15:24:57;15.40;98.20
51175;DHT22;37240;50.104;20.010;2024-03-02T15:29:58;15.40;98.20
51175;DHT22;37240;50.104;20.010;2024-03-02T15:34:59;15.30;98.10
51175;DHT22;37240;50.104;20.010;2024-03-02T15:40:00;15.20;98.30
51175;DHT22;37240;50.104;20.010;2024-03-02T15:45:00;15.20;98.40
51175;DHT22;37240;50.104;20.010;2024-03-02T15:50:02;15.10;98.60
51175;DHT22;37240;50.104;20.010;2024-03-02T15:55:03;15.10;98.90
51175;DHT22;37240;50.104;20.010;2024-03-02T16:00:04;15.10;99.00
51175;DHT22;37240;50.104;20.010;2024-03-02T16:05:05;14.90;99.30
51175;DHT22;37240;50.104;20.010;2024-03-02T16:10:06;14.80;99.60
51175;DHT22;37240;50.104;20.010;2024-03-02T16:15:07;14.70;99.90
51175;DHT22;37240;50.104;20.010;2024-03-02T16:20:08;14.60;99.90
51175;DHT22;37240;50.104;20.010;2024-03-02T16:25:09;14.60;99.90
51175;DHT22;37240;50.104;20.010;2024-03-02T16:30:10;14.50;99.90
51175;DHT22;37240;50.104;20.010;2024-03-02T16:35:10;14.40;99.90
51175;DHT22;37240;50.104;20.010;2024-03-02T16:40:11;14.40;99.90
51175;DHT22;37240;50.104;20.010;2024-03-02T16:45:12;14.30;99.90
51175;DHT22;37240;50.104;20.010;2024-03-02T16:50:13;14.30;99.90
51175;DHT22;37240;50.104;20.010;2024-03-02T16:55:14;14.20;99.90
51175;DHT22;37240;50.104;20.010;2024-03-02T17:00:14;14.20;99.90
51175;DHT22;37240;50.104;20.010;2024-03-02T17:05:15;14.20;99.90
51175;DHT22;37240;50.104;20.010;2024-03-02T17:10:16;14.20;99.90
51175;DHT22;37240;50.104;20.010;2024-03-02T17:15:17;14.10;99.90
51175;DHT22;37240;50.104;20.010;2024-03-02T17:20:17;14.00;99.90
51175;DHT22;37240;50.104;20.010;2024-03-02T17:25:18;14.00;99.90
51175;DHT22;37240;50.104;20.010;2024-03-02T17:30:19;13.90;99.90
51175;DHT22;37240;50.104;20.010;2024-03-02T17:35:19;13.90;99.90
51175;DHT22;37240;50.104;20.010;2024-03-02T17:40:20;14.00;99.90
51175;DHT22;37240;50.104;20.010;2024-03-02T17:45:20;14.00;99.90
51175;DHT22;37240;50.104;20.010;2024-03-02T17:50:21;14.00;99.90
51175;DHT22;37240;50.104;20.010;2024-03-02T17:55:22;13.90;99.90
51175;DHT22;37240;50.104;20.010;2024-03-02T18:00:22;13.80;99.90
51175;DHT22;37240;50.104;20.010;2024-03-02T18:05:23;13.80;99.90
51175;DHT22;37240;50.104;20.010;2024-03-02T18:10:23;13.70;99.90
51175;DHT22;37240;50.104;20.010;2024-03-02T18:15:24;13.70;99.90
51175;DHT22;37240;50.104;20.010;2024-03-02T18:20:24;13.60;99.90
51175;DHT22;37240;50.104;20.010;2024-03-02T18:25:25;13.50;99.90
51175;DHT22;37240;50.104;20.010;2024-03-02T18:30:25;13.50;99.90
51175;DHT22;37240;50.104;20.010;2024-03-02T18:35:26;13.50;99.90
51175;DHT22;37240;50.104;20.010;2024-03-02T18:40:26;13.40;99.90
51175;DHT22;37240;50.104;20.010;2024-03-02T18:45:27;13.40;99.90
51175;DHT22;37240;50.104;20.010;2024-03-02T18:50:28;13.30;99.90
51175;DHT22;37240;50.104;20.010;2024-03-02T18:55:28;13.20;99.90
51175;DHT22;37240;50.104;20.010;2024-03-02T19:00:29;13.20;99.90
51175;DHT22;37240;50.104;20.010;2024-03-02T19:05:29;13.20;99.90
51175;DHT22;37240;50.104;20.010;2024-03-02T19:10:30;13.10;99.90
51175;DHT22;37240;50.104;20.010;2024-03-02T19:15:30;13.10;99.90
51175;DHT22;37240;50.104;20.010;2024-03-02T19:20:31;13.10;99.90
51175;DHT22;37240;50.104;20.010;2024-03-02T19:25:31;13.20;99.90
51175;DHT22;37240;50.104;20.010;2024-03-02T19:30:32;13.30;99.90
51175;DHT22;37240;50.104;20.010;2024-03-02T19:35:32;13.20;99.90
51175;DHT22;37240;50.104;20.010;2024-03-02T19:40:33;13.10;99.90
51175;DHT22;37240;50.104;20.010;2024-03-02T19:45:34;13.00;99.90
51175;DHT22;37240;50.104;20.010;2024-03-02T19:50:34;13.00;99.90
51175;DHT22;37240;50.104;20.010;2024-03-02T19:55:35;13.00;99.90
51175;DHT22;37240;50.104;20.010;2024-03-02T20:00:35;12.90;99.90
51175;DHT22;37240;50.104;20.010;2024-03-02T20:05:36;12.80;99.90
51175;DHT22;37240;50.104;20.010;2024-03-02T20:10:36;12.80;99.90
51175;DHT22;37240;50.104;20.010;2024-03-02T20:15:37;12.60;99.90
51175;DHT22;37240;50.104;20.010;2024-03-02T20:20:37;12.60;99.90
51175;DHT22;37240;50.104;20.010;2024-03-02T20:25:38;12.50;99.90
51175;DHT22;37240;50.104;20.010;2024-03-02T20:30:38;12.40;99.90
51175;DHT22;37240;50.104;20.010;2024-03-02T20:35:39;12.40;99.90
51175;DHT22;37240;50.104;20.010;2024-03-02T20:40:40;12.30;99.90
51175;DHT22;37240;50.104;20.010;2024-03-02T20:45:40;12.40;99.90
51175;DHT22;37240;50.104;20.010;2024-03-02T20:50:41;12.40;99.90
51175;DHT22;37240;50.104;20.010;2024-03-02T20:55:42;12.40;99.90
51175;DHT22;37240;50.104;20.010;2024-03-02T21:00:42;12.40;99.90
51175;DHT22;37240;50.104;20.010;2024-03-02T21:05:43;12.50;99.90
51175;DHT22;37240;50.104;20.010;2024-03-02T21:10:43;12.50;99.90
51175;DHT22;37240;50.104;20.010;2024-03-02T21:15:44;12.50;99.90
51175;DHT22;37240;50.104;20.010;2024-03-02T21:20:44;12.30;99.90
51175;DHT22;37240;50.104;20.010;2024-03-02T21:25:45;12.30;99.90
51175;DHT22;37240;50.104;20.010;2024-03-02T21:30:48;12.30;99.90
51175;DHT22;37240;50.104;20.010;2024-03-02T21:35:48;12.30;99.90
51175;DHT22;37240;50.104;20.010;2024-03-02T21:40:49;12.20;99.90
51175;DHT22;37240;50.104;20.010;2024-03-02T21:45:50;12.20;99.90
51175;DHT22;37240;50.104;20.010;2024-03-02T21:50:50;12.20;99.90
51175;DHT22;37240;50.104;20.010;2024-03-02T21:55:51;12.20;99.90
51175;DHT22;37240;50.104;20.010;2024-03-02T22:00:51;12.20;99.90
51175;DHT22;37240;50.104;20.010;2024-03-02T22:05:52;12.10;99.90
51175;DHT22;37240;50.104;20.010;2024-03-02T22:10:54;12.20;99.90
51175;DHT22;37240;50.104;20.010;2024-03-02T22:15:54;12.20;99.90
51175;DHT22;37240;50.104;20.010;2024-03-02T22:20:55;12.30;99.90
51175;DHT22;37240;50.104;20.010;2024-03-02T22:25:58;12.20;99.90
51175;DHT22;37240;50.104;20.010;2024-03-02T22:30:59;12.20;99.90
51175;DHT22;37240;50.104;20.010;2024-03-02T22:35:59;12.10;99.90
51175;DHT22;37240;50.104;20.010;2024-03-02T22:41:00;12.10;99.90
51175;DHT22;37240;50.104;20.010;2024-03-02T22:46:00;12.20;99.90
51175;DHT22;37240;50.104;20.010;2024-03-02T22:51:01;12.10;99.90
51175;DHT22;37240;50.104;20.010;2024-03-02T22:56:02;12.10;99.90
51175;DHT22;37240;50.104;20.010;2024-03-02T23:01:03;12.00;99.90
51175;DHT22;37240;50.104;20.010;2024-03-02T23:06:04;12.10;99.90
51175;DHT22;37240;50.104;20.010;2024-03-02T23:11:05;12.00;99.90
51175;DHT22;37240;50.104;20.010;2024-03-02T23:16:06;11.90;99.90
51175;DHT22;37240;50.104;20.010;2024-03-02T23:21:06;11.80;99.90
51175;DHT22;37240;50.104;20.010;2024-03-02T23:26:07;11.70;99.90
51175;DHT22;37240;50.104;20.010;2024-03-02T23:31:09;11.70;99.90
51175;DHT22;37240;50.104;20.010;2024-03-02T23:36:10;11.60;99.90
51175;DHT22;37240;50.104;20.010;2024-03-02T23:41:10;11.50;99.90
51175;DHT22;37240;50.104;20.010;2024-03-02T23:46:11;11.50;99.90
51175;DHT22;37240;50.104;20.010;2024-03-02T23:51:11;11.60;99.90
51175;DHT22;37240;50.104;20.010;2024-03-02T23:56:13;11.60;99.90
